Ana Sayfa
METAR-TAF:

METAR-TAF

Havaalanları :

Malé, Maldivler

Enlem: 04-12N, Boylam: 073-32E, yükseklik: 2 m

Güncel hava durumu gözlemi

Rapor saat 10:00 UTC de 1 saat ve 0 dakika önce yapıldı.
Rüzgar doğu/kuzeydoğudan 8 kt
Sıcaklık 31°C
Nem 66%
Basınç 1008 hPa
Görüş mesafesi: 3000 m
1800 ft yükseklikte az bulutlu, Yükselen kümülüs.
27000 ft yükseklikte parçalı çok bulutlu
Toz Pusu

METAR: VRMM 101000Z 07008KT 3000 HZ FEW018TCU BKN270 31/24 Q1008 NOSIG

Saat: 16:00 (11:00 UTC)

Tahmin

Rapor saat 05:00 UTC de 6 saat ve 0 dakika önce yapıldı.
Ayın 10'si saat 06 UTC'den ayın 11'si saat 12 UTC'ye kadar geçerli Tahmin
Rüzgar doğu/kuzeydoğudan 8 kt
Görüş mesafesi: 7000 m
1800 ft yükseklikte az bulutlu
Geçici
ayın 10'si saat 06 UTC'den ayın 10'si saat 12 UTC'ye kadar
Görüş mesafesi: 3000 m
1800 ft yükseklikte az bulutlu, Kümülonimbus.
Toz Pusu

TAF: VRMM 100500Z 1006/1112 07008KT 7000 FEW018 TEMPO 1006/1012 3000 HZ FEW018CB

4.000'den fazla havaalanı için hava durumu gözlemleri ve tahminleri (METAR ve TAF raporları).

Kullanılabilir istasyonlar harita üzerinde sarı ve kırmızı noktalarla gösterilir.

İstasyonun adını görmek için fareyi noktanın üzerinde gezdirin.

Sonrasında hava gözlem ve tahminlerini görmek için tıklayın.

Haritayı değiştirmek için: yaklaştırmak için siyah artı işaretli yeşil düğmeye ve uzaklaştırmak için de eksi işaretli düğmeye hızla tıklayın; bitişik haritalar için yeşil okları kullanın.


METAR-TAF: